Time;durP1;ratioP1;P1;durP2;ratioP2;P2;SDS_P1;SDS_P2;PMS_P1;PMS_P2;Temp;Humidity;BMP_temperature;BMP_pressure;BME280_temperature;BME280_humidity;BME280_pressure;Samples;Min_cycle;Max_cycle;Signal;HPM_P1;HPM_P2
2022/03/19 11:05:55;;;;;;;4.97;1.50;;;14.50;30.80;;;;;;6128171;23;20022;-82
2022/03/19 11:09:01;;;;;;;9.57;2.10;;;14.70;30.40;;;;;;6131056;23;20034;-81
2022/03/19 11:12:00;;;;;;;5.18;1.60;;;14.60;30.10;;;;;;6132837;23;20035;-83
2022/03/19 11:14:50;;;;;;;8.40;2.28;;;14.60;29.40;;;;;;6105566;23;20031;-73
2022/03/19 11:17:43;;;;;;;7.38;2.10;;;14.60;30.20;;;;;;6125206;23;20802;-72
2022/03/19 11:20:14;;;;;;;6.68;1.88;;;14.40;30.70;;;;;;6129358;23;20026;-81
2022/03/19 11:23:01;;;;;;;5.18;2.00;;;14.70;31.70;;;;;;6131991;23;20035;-82
2022/03/19 11:25:57;;;;;;;7.38;2.10;;;14.90;33.30;;;;;;6127449;23;20077;-82
2022/03/19 11:28:24;;;;;;;5.72;2.08;;;14.50;31.40;;;;;;6131735;23;20104;-82
2022/03/19 11:34:47;;;;;;;9.85;2.42;;;14.50;31.00;;;;;;6071108;23;20020;-81
2022/03/19 11:37:33;;;;;;;6.88;1.80;;;14.30;30.20;;;;;;6046091;23;20061;-81
2022/03/19 11:40:29;;;;;;;5.68;1.88;;;14.50;30.00;;;;;;6069620;23;20031;-82
2022/03/19 11:43:35;;;;;;;5.57;1.75;;;14.20;29.00;;;;;;6057156;23;20015;-81
2022/03/19 11:46:17;;;;;;;3.55;1.50;;;14.20;28.80;;;;;;6032766;23;20036;-81
2022/03/19 11:49:02;;;;;;;5.28;1.63;;;14.00;27.30;;;;;;6070891;23;20032;-81
2022/03/19 11:51:53;;;;;;;6.90;1.58;;;14.00;28.40;;;;;;6073172;23;20067;-79
2022/03/19 11:54:27;;;;;;;7.13;1.70;;;13.90;28.00;;;;;;6071027;23;20023;-79
2022/03/19 11:57:08;;;;;;;8.40;1.70;;;14.00;28.50;;;;;;6077609;23;20122;-80
2022/03/19 11:59:44;;;;;;;9.60;2.20;;;14.10;28.80;;;;;;6052840;23;20074;-80
2022/03/19 12:02:32;;;;;;;6.38;2.28;;;14.00;29.80;;;;;;6050278;23;20125;-79
2022/03/19 12:05:15;;;;;;;7.85;1.73;;;13.90;29.70;;;;;;6070897;23;20027;-79
2022/03/19 12:07:47;;;;;;;4.15;1.77;;;14.00;29.80;;;;;;6080873;23;20034;-79
2022/03/19 12:10:24;;;;;;;6.95;1.85;;;14.10;30.00;;;;;;6134475;23;20032;-79
2022/03/19 12:13:39;;;;;;;8.57;1.63;;;14.10;30.40;;;;;;6113787;23;20022;-80
2022/03/19 12:16:08;;;;;;;5.20;1.58;;;14.00;30.00;;;;;;6106992;23;20027;-80
2022/03/19 12:19:11;;;;;;;9.63;1.95;;;14.10;30.40;;;;;;6134121;23;20374;-81
2022/03/19 12:22:06;;;;;;;4.88;1.30;;;14.00;29.70;;;;;;6132893;23;20130;-84
2022/03/19 12:25:06;;;;;;;4.53;1.70;;;14.10;29.20;;;;;;6107680;23;20085;-79
2022/03/19 12:28:05;;;;;;;7.10;1.88;;;14.00;27.70;;;;;;6100075;23;20033;-81
2022/03/19 12:30:38;;;;;;;6.30;1.40;;;14.00;28.30;;;;;;6131578;23;20034;-80
2022/03/19 12:33:38;;;;;;;9.23;1.38;;;14.20;28.60;;;;;;6131299;23;20047;-79
2022/03/19 12:36:15;;;;;;;7.75;1.50;;;14.10;27.20;;;;;;6127166;23;20022;-79
2022/03/19 12:39:14;;;;;;;3.60;1.25;;;14.20;27.30;;;;;;6124906;23;20121;-79
2022/03/19 12:41:55;;;;;;;5.90;1.40;;;14.20;28.70;;;;;;6090149;23;20034;-79
2022/03/19 12:44:51;;;;;;;5.75;1.40;;;14.40;27.50;;;;;;6128329;23;20031;-80
2022/03/19 12:47:19;;;;;;;3.85;1.35;;;14.50;28.40;;;;;;6127402;23;20022;-79
2022/03/19 12:49:53;;;;;;;8.55;1.52;;;14.40;28.80;;;;;;6126541;23;20033;-80
2022/03/19 12:52:25;;;;;;;6.15;1.58;;;14.60;28.60;;;;;;6130417;23;20113;-80
2022/03/19 12:54:56;;;;;;;13.18;2.25;;;14.50;28.90;;;;;;6106001;23;20093;-80
2022/03/19 12:57:25;;;;;;;6.85;1.52;;;14.40;29.40;;;;;;6103096;23;20022;-80
2022/03/19 12:59:57;;;;;;;4.90;1.20;;;14.50;28.70;;;;;;6133756;23;20041;-80
2022/03/19 13:02:41;;;;;;;5.18;1.65;;;14.50;28.70;;;;;;6137736;23;20019;-80
2022/03/19 13:05:24;;;;;;;;;;;;;;;;;;;;;
2022/03/19 13:08:50;;;;;;;;;;;;;;;;;;;;;
2022/03/19 13:11:49;;;;;;;7.00;1.63;;;14.30;28.30;;;;;;6131877;23;20046;-79
2022/03/19 13:14:25;;;;;;;7.78;1.85;;;14.30;28.80;;;;;;6131652;23;20026;-80
2022/03/19 13:16:58;;;;;;;5.13;2.10;;;14.20;28.50;;;;;;6130135;23;20064;-80
2022/03/19 13:19:34;;;;;;;6.00;1.83;;;14.20;28.30;;;;;;6132914;23;20022;-79
2022/03/19 13:22:23;;;;;;;2.67;1.10;;;14.20;28.50;;;;;;6133012;23;20409;-80
2022/03/19 13:25:35;;;;;;;10.18;2.08;;;14.30;29.30;;;;;;6136785;23;20033;-80
2022/03/19 13:28:57;;;;;;;6.00;1.40;;;14.30;28.80;;;;;;6140105;23;20050;-80
2022/03/19 13:31:44;;;;;;;6.65;1.83;;;14.20;27.50;;;;;;6115805;23;20023;-80
2022/03/19 13:35:03;;;;;;;3.45;1.40;;;14.10;27.70;;;;;;6133578;23;20022;-81
2022/03/19 13:38:12;;;;;;;4.78;1.58;;;14.20;28.50;;;;;;6041871;23;20030;-80
2022/03/19 13:40:39;;;;;;;5.45;1.42;;;14.30;28.90;;;;;;6041944;23;20131;-80
2022/03/19 13:43:41;;;;;;;4.45;1.20;;;14.30;29.50;;;;;;6039890;23;20107;-80
2022/03/19 13:46:22;;;;;;;8.13;1.80;;;14.20;28.20;;;;;;6041245;23;20028;-80
2022/03/19 13:49:25;;;;;;;8.05;1.63;;;14.70;28.60;;;;;;5078286;28;20455;-81
2022/03/19 13:52:02;;;;;;;4.97;1.23;;;14.10;27.40;;;;;;5080070;28;20053;-81
2022/03/19 13:55:02;;;;;;;4.95;1.52;;;14.00;27.90;;;;;;5053052;28;20087;-81
2022/03/19 13:57:58;;;;;;;7.35;1.45;;;14.00;28.00;;;;;;5082556;28;20069;-81
2022/03/19 14:00:31;;;;;;;9.25;1.60;;;14.00;28.30;;;;;;5076329;28;20045;-80
2022/03/19 14:03:06;;;;;;;9.88;1.77;;;14.00;29.00;;;;;;5077818;28;20061;-81
2022/03/19 14:05:48;;;;;;;6.57;1.67;;;14.10;28.80;;;;;;5077177;28;20053;-81
2022/03/19 14:08:18;;;;;;;4.28;1.10;;;14.20;28.50;;;;;;5083877;28;20064;-81
2022/03/19 14:10:50;;;;;;;3.85;1.30;;;14.10;27.90;;;;;;5075511;28;20408;-80
2022/03/19 14:13:48;;;;;;;5.57;1.40;;;14.10;28.20;;;;;;5080441;28;20073;-81
2022/03/19 14:16:55;;;;;;;5.18;1.35;;;14.10;27.90;;;;;;5081051;28;20057;-81
2022/03/19 14:19:45;;;;;;;7.55;1.48;;;14.00;27.40;;;;;;5070053;28;20029;-81
2022/03/19 14:22:17;;;;;;;7.32;1.40;;;14.10;27.10;;;;;;5086715;28;20057;-81
2022/03/19 14:24:45;;;;;;;7.18;1.10;;;14.20;27.40;;;;;;5075202;28;20055;-79
2022/03/19 14:27:11;;;;;;;7.80;1.35;;;14.00;26.20;;;;;;5073933;28;20111;-80
2022/03/19 14:29:44;;;;;;;2.67;1.00;;;14.00;27.50;;;;;;5075605;28;20569;-80
2022/03/19 14:32:35;;;;;;;6.03;1.27;;;13.80;26.60;;;;;;5077608;28;20110;-80
2022/03/19 14:35:03;;;;;;;4.47;0.98;;;13.80;27.30;;;;;;5079567;28;20057;-80
2022/03/19 14:37:30;;;;;;;4.30;1.15;;;13.90;27.60;;;;;;5073747;28;20698;-80
2022/03/19 14:40:17;;;;;;;6.95;1.67;;;13.80;26.80;;;;;;5068542;28;20504;-80
2022/03/19 14:43:26;;;;;;;4.15;1.10;;;13.80;27.40;;;;;;5077681;28;20049;-79
2022/03/19 14:46:25;;;;;;;4.65;1.55;;;14.00;27.90;;;;;;5073785;28;20052;-80
2022/03/19 14:48:52;;;;;;;9.80;2.70;;;14.20;27.40;;;;;;5072752;28;20373;-80
2022/03/19 14:51:40;;;;;;;4.30;1.50;;;14.30;27.10;;;;;;5072323;28;20812;-81
2022/03/19 14:54:30;;;;;;;2.05;0.90;;;14.30;27.40;;;;;;5072736;28;20045;-79
2022/03/19 14:57:05;;;;;;;4.65;1.35;;;14.20;27.90;;;;;;5069170;28;20879;-80
2022/03/19 14:59:50;;;;;;;6.05;0.80;;;14.20;27.10;;;;;;5066187;28;20053;-80
2022/03/19 15:02:41;;;;;;;;;;;14.10;26.40;;;;;;5037559;28;20037;-81
2022/03/19 15:05:09;;;;;;;3.42;0.95;;;14.00;26.50;;;;;;5093696;28;20354;-80
2022/03/19 15:07:36;;;;;;;4.57;1.10;;;14.00;26.90;;;;;;5064250;28;20062;-81
2022/03/19 15:10:19;;;;;;;3.15;0.90;;;13.90;26.80;;;;;;5063610;28;20052;-81
2022/03/19 15:13:36;;;;;;;3.05;1.05;;;13.80;27.40;;;;;;5048621;28;20050;-80
2022/03/19 15:16:09;;;;;;;4.47;1.20;;;13.90;26.80;;;;;;5063995;28;20111;-80
2022/03/19 15:18:36;;;;;;;8.05;1.15;;;13.80;27.30;;;;;;5054100;28;20053;-80
2022/03/19 15:21:03;;;;;;;4.78;1.25;;;14.00;27.00;;;;;;5060552;28;20054;-80
2022/03/19 15:23:29;;;;;;;7.68;1.00;;;13.80;27.80;;;;;;5055222;28;20060;-80
2022/03/19 15:25:56;;;;;;;2.40;1.05;;;14.00;26.70;;;;;;5062460;28;20049;-80
2022/03/19 15:28:24;;;;;;;9.60;1.95;;;14.10;27.40;;;;;;5063588;28;20557;-81
2022/03/19 15:31:06;;;;;;;7.68;1.70;;;14.50;28.30;;;;;;5065119;28;20054;-81
2022/03/19 15:33:35;;;;;;;4.77;1.30;;;14.50;28.20;;;;;;5064114;28;20125;-80
2022/03/19 15:36:36;;;;;;;6.47;1.30;;;14.40;27.20;;;;;;5069745;28;20284;-81
2022/03/19 15:39:29;;;;;;;5.28;1.20;;;14.70;26.50;;;;;;5069329;28;20496;-81
2022/03/19 15:41:58;;;;;;;5.43;1.30;;;14.60;26.40;;;;;;5068216;28;20057;-81
2022/03/19 15:44:37;;;;;;;3.42;1.10;;;14.60;25.80;;;;;;5073006;28;20773;-81
2022/03/19 15:47:04;;;;;;;7.32;1.98;;;14.50;26.00;;;;;;5067995;28;20095;-81
2022/03/19 15:49:31;;;;;;;4.78;2.60;;;14.60;25.40;;;;;;5071278;28;20049;-82
2022/03/19 15:52:08;;;;;;;3.22;1.27;;;14.50;25.20;;;;;;5058195;28;20049;-81
2022/03/19 15:55:06;;;;;;;6.32;1.52;;;14.50;24.60;;;;;;5058559;28;20792;-81
2022/03/19 15:57:55;;;;;;;6.32;1.38;;;14.60;24.80;;;;;;5057659;28;20055;-80
2022/03/19 16:00:50;;;;;;;4.07;1.40;;;14.30;25.70;;;;;;5057613;28;20053;-82
2022/03/19 16:03:30;;;;;;;4.97;1.50;;;14.20;25.90;;;;;;5067575;28;20034;-81
2022/03/19 16:06:15;;;;;;;7.32;1.30;;;14.20;26.70;;;;;;5066869;28;20028;-81
2022/03/19 16:08:49;;;;;;;2.40;1.40;;;13.90;26.40;;;;;;5068178;28;20052;-81
2022/03/19 16:11:15;;;;;;;6.50;1.85;;;13.90;27.50;;;;;;5064931;28;20215;-82
2022/03/19 16:17:51;;;;;;;5.95;1.35;;;14.10;26.90;;;;;;5069022;28;20167;-82
2022/03/19 16:20:40;;;;;;;12.02;1.33;;;13.90;27.60;;;;;;5074904;28;20048;-82
2022/03/19 16:23:31;;;;;;;8.25;1.63;;;13.90;28.20;;;;;;5072929;28;20050;-82
2022/03/19 16:26:03;;;;;;;6.43;1.42;;;13.70;28.20;;;;;;5063742;28;20082;-81
2022/03/19 16:28:54;;;;;;;;;;;;;;;;;;;;;
2022/03/19 16:31:46;;;;;;;5.55;1.60;;;13.70;29.20;;;;;;5060702;28;20060;-82
2022/03/19 16:34:13;;;;;;;6.22;1.40;;;13.50;29.20;;;;;;5064408;28;20049;-81
2022/03/19 16:36:55;;;;;;;5.20;1.65;;;13.40;29.50;;;;;;5069814;28;21297;-80
2022/03/19 16:39:34;;;;;;;9.13;1.70;;;13.00;30.50;;;;;;5063504;28;20041;-80
2022/03/19 16:42:02;;;;;;;6.43;1.50;;;12.90;31.30;;;;;;5058627;28;20873;-82
2022/03/19 16:44:57;;;;;;;6.43;1.70;;;12.80;31.80;;;;;;5070814;28;20081;-81
2022/03/19 16:47:44;;;;;;;11.18;1.80;;;12.80;32.10;;;;;;5088180;28;20116;-82
2022/03/19 16:50:11;;;;;;;6.82;1.80;;;12.80;33.30;;;;;;5069975;28;20453;-82
2022/03/19 16:52:38;;;;;;;6.13;1.75;;;12.90;33.10;;;;;;5073778;28;20484;-81
2022/03/19 16:55:09;;;;;;;7.90;1.77;;;12.90;33.00;;;;;;5063026;28;20140;-79
2022/03/19 16:58:10;;;;;;;6.90;1.80;;;13.00;33.50;;;;;;5061763;28;20077;-80
